Time;durP1;ratioP1;P1;durP2;ratioP2;P2;SDS_P1;SDS_P2;PMS_P1;PMS_P2;Temp;Humidity;BMP_temperature;BMP_pressure;BME280_temperature;BME280_humidity;BME280_pressure;Samples;Min_cycle;Max_cycle;Signal;HPM_P1;HPM_P2
2023/02/09 00:00:09;;;;;;;2.90;1.00;;;-1.10;99.90;;;;;;4955330;28;20110;-83
2023/02/09 00:02:43;;;;;;;3.63;1.20;;;-1.00;99.90;;;;;;4959062;28;20036;-83
2023/02/09 00:05:09;;;;;;;3.65;0.80;;;-1.10;99.90;;;;;;4956639;28;20105;-79
2023/02/09 00:07:35;;;;;;;2.80;0.90;;;-1.00;99.90;;;;;;4971988;28;20034;-84
2023/02/09 00:10:00;;;;;;;3.83;0.90;;;-1.20;99.90;;;;;;4975547;28;20054;-80
2023/02/09 00:15:10;;;;;;;4.28;1.60;;;-1.00;99.90;;;;;;4986406;28;20105;-77
2023/02/09 00:17:36;;;;;;;4.68;1.55;;;-1.00;99.90;;;;;;4956761;28;20129;-79
2023/02/09 00:20:06;;;;;;;3.90;1.30;;;-1.10;99.90;;;;;;4988765;28;20037;-77
2023/02/09 00:22:32;;;;;;;4.45;1.08;;;-1.20;99.90;;;;;;4970839;28;20026;-79
2023/02/09 00:24:58;;;;;;;3.53;1.10;;;-1.20;99.90;;;;;;4971776;28;20030;-83
2023/02/09 00:27:24;;;;;;;4.45;1.25;;;-1.20;99.90;;;;;;4972906;28;20089;-79
2023/02/09 00:29:50;;;;;;;3.22;1.00;;;-1.20;99.90;;;;;;4972465;28;20023;-83
2023/02/09 00:32:16;;;;;;;3.28;1.10;;;-1.20;99.90;;;;;;4972785;28;20372;-83
2023/02/09 00:34:42;;;;;;;3.05;0.95;;;-1.30;99.90;;;;;;4954649;28;20054;-81
2023/02/09 00:37:08;;;;;;;4.30;1.27;;;-1.30;99.90;;;;;;4971346;28;20102;-80
2023/02/09 00:39:33;;;;;;;4.15;1.25;;;-1.20;99.90;;;;;;4975867;28;20546;-83
2023/02/09 00:42:05;;;;;;;4.78;1.65;;;-1.10;99.90;;;;;;4955558;28;20487;-82
2023/02/09 00:44:34;;;;;;;5.22;1.50;;;-1.10;99.90;;;;;;4959578;28;20036;-83
2023/02/09 00:47:01;;;;;;;4.57;1.42;;;-1.20;99.90;;;;;;4970282;28;20035;-82
2023/02/09 00:49:27;;;;;;;5.55;1.42;;;-1.30;99.90;;;;;;4967068;28;20445;-81
2023/02/09 00:51:53;;;;;;;3.00;0.85;;;-1.40;99.90;;;;;;4971982;28;20033;-79
2023/02/09 00:54:19;;;;;;;4.68;1.10;;;-1.40;99.90;;;;;;4975614;28;20030;-81
2023/02/09 00:56:45;;;;;;;3.13;0.77;;;-1.50;99.90;;;;;;4959139;28;20034;-81
2023/02/09 00:59:11;;;;;;;3.25;0.80;;;-1.60;99.90;;;;;;4976194;28;20034;-83
2023/02/09 01:01:37;;;;;;;3.83;1.13;;;-1.50;99.90;;;;;;4981298;28;20125;-80
2023/02/09 01:04:03;;;;;;;4.68;1.70;;;-1.50;99.90;;;;;;4993101;28;20089;-79
2023/02/09 01:06:29;;;;;;;5.60;1.33;;;-1.70;99.90;;;;;;4976058;28;20038;-81
2023/02/09 01:08:56;;;;;;;2.28;0.85;;;-1.70;99.90;;;;;;4956789;28;20027;-80
2023/02/09 01:11:26;;;;;;;4.45;1.48;;;-1.90;99.90;;;;;;4975857;28;20050;-81
2023/02/09 01:13:55;;;;;;;2.42;0.70;;;-1.70;99.90;;;;;;4990888;28;20047;-83
2023/02/09 01:16:21;;;;;;;2.55;0.63;;;-1.80;99.90;;;;;;4974102;28;20034;-83
2023/02/09 01:18:46;;;;;;;3.45;0.93;;;-1.90;99.90;;;;;;4972611;28;20022;-83
2023/02/09 01:21:15;;;;;;;3.10;1.15;;;-1.70;99.90;;;;;;4995219;28;20389;-83
2023/02/09 01:23:41;;;;;;;2.70;0.80;;;-1.70;99.90;;;;;;4990241;28;20410;-82
2023/02/09 01:26:12;;;;;;;3.80;0.73;;;-1.80;99.90;;;;;;4974291;28;20035;-82
2023/02/09 01:28:38;;;;;;;3.90;1.30;;;-2.00;99.90;;;;;;4978916;28;20026;-78
2023/02/09 01:31:06;;;;;;;3.03;0.70;;;-2.10;99.90;;;;;;4987449;28;20031;-81
2023/02/09 01:33:32;;;;;;;3.45;0.77;;;-2.20;99.90;;;;;;4975757;28;20042;-80
2023/02/09 01:36:02;;;;;;;3.58;1.00;;;-2.40;99.90;;;;;;4998171;28;20109;-82
2023/02/09 01:38:28;;;;;;;2.58;0.75;;;-2.50;99.90;;;;;;4971727;28;20097;-82
2023/02/09 01:40:53;;;;;;;3.10;0.75;;;-2.40;99.90;;;;;;4971259;28;20450;-82
2023/02/09 01:43:19;;;;;;;3.33;0.70;;;-2.30;99.90;;;;;;4958334;28;20042;-82
2023/02/09 01:45:54;;;;;;;2.38;0.70;;;-2.40;99.90;;;;;;4974440;28;20097;-81
2023/02/09 01:48:27;;;;;;;3.17;0.70;;;-2.40;99.90;;;;;;4973743;28;20038;-81
2023/02/09 01:50:56;;;;;;;2.13;0.60;;;-2.50;99.90;;;;;;4992955;28;20030;-77
2023/02/09 01:53:23;;;;;;;2.35;0.52;;;-2.60;99.90;;;;;;4971739;28;20030;-83
2023/02/09 01:56:02;;;;;;;2.63;0.50;;;-2.60;99.90;;;;;;4957332;28;20031;-79
2023/02/09 01:58:28;;;;;;;2.15;0.50;;;-2.70;99.90;;;;;;4994168;28;20089;-79
2023/02/09 02:00:54;;;;;;;1.98;0.60;;;-2.70;99.90;;;;;;4956473;28;20030;-78
2023/02/09 02:03:24;;;;;;;2.65;0.57;;;-2.70;99.90;;;;;;4991606;28;20233;-82
2023/02/09 02:05:54;;;;;;;2.03;0.47;;;-2.70;99.90;;;;;;4990487;28;20029;-83
2023/02/09 02:08:23;;;;;;;3.08;0.60;;;-2.80;99.90;;;;;;4973420;28;20038;-79
2023/02/09 02:10:50;;;;;;;1.65;0.50;;;-2.80;99.90;;;;;;4974086;28;20133;-76
2023/02/09 02:13:16;;;;;;;1.85;0.50;;;-2.80;99.90;;;;;;4977748;28;20531;-79
2023/02/09 02:16:06;;;;;;;2.38;0.60;;;-2.80;99.90;;;;;;4969143;28;20113;-77
2023/02/09 02:18:54;;;;;;;3.85;0.50;;;-2.80;99.90;;;;;;4994162;28;20422;-81
2023/02/09 02:21:58;;;;;;;1.90;0.70;;;-2.80;99.90;;;;;;4989747;28;20030;-83
2023/02/09 02:24:43;;;;;;;2.00;0.50;;;-2.70;99.90;;;;;;4978852;28;20137;-83
2023/02/09 02:27:30;;;;;;;2.40;0.50;;;-2.70;99.90;;;;;;4993165;28;20394;-83
2023/02/09 02:30:21;;;;;;;3.05;0.50;;;-2.70;99.90;;;;;;4957979;28;20030;-80
2023/02/09 02:33:00;;;;;;;2.03;0.40;;;-2.70;99.90;;;;;;4959007;28;20038;-83
2023/02/09 02:35:33;;;;;;;2.95;0.60;;;-2.70;99.90;;;;;;4972525;28;20026;-79
2023/02/09 02:38:30;;;;;;;2.22;0.60;;;-2.70;99.90;;;;;;4989128;28;20124;-76
2023/02/09 02:41:14;;;;;;;1.70;0.60;;;-2.80;99.90;;;;;;4973405;28;20080;-83
2023/02/09 02:43:40;;;;;;;1.65;0.40;;;-2.90;99.90;;;;;;4954123;28;20122;-78
2023/02/09 02:46:25;;;;;;;1.73;0.40;;;-2.90;99.90;;;;;;4973285;28;20030;-82
2023/02/09 02:48:56;;;;;;;2.50;0.60;;;-2.90;99.90;;;;;;4970287;28;20026;-81
2023/02/09 02:51:36;;;;;;;2.97;0.47;;;-3.00;99.90;;;;;;4972295;28;20045;-83
2023/02/09 02:54:16;;;;;;;2.00;0.40;;;-3.00;99.90;;;;;;4991228;28;20077;-77
2023/02/09 02:56:48;;;;;;;1.73;0.40;;;-3.00;99.90;;;;;;4972692;28;20469;-80
2023/02/09 02:59:19;;;;;;;2.30;0.52;;;-3.00;99.90;;;;;;4971604;28;20057;-84
2023/02/09 03:01:57;;;;;;;3.22;0.43;;;-3.00;99.90;;;;;;4976430;28;20077;-81
2023/02/09 03:04:26;;;;;;;2.17;0.47;;;-3.00;99.90;;;;;;4971256;28;20038;-83
2023/02/09 03:06:53;;;;;;;1.65;0.47;;;-3.00;99.90;;;;;;4956525;28;20502;-83
2023/02/09 03:09:21;;;;;;;2.55;0.40;;;-2.80;99.90;;;;;;4957093;28;20077;-83
2023/02/09 03:11:50;;;;;;;4.28;0.70;;;-2.80;99.90;;;;;;4972278;28;20502;-82
2023/02/09 03:14:38;;;;;;;3.15;0.57;;;-2.70;99.90;;;;;;4970265;28;20483;-81
2023/02/09 03:17:12;;;;;;;3.33;0.70;;;-2.80;99.90;;;;;;4987648;28;20022;-76
2023/02/09 03:20:07;;;;;;;2.22;0.50;;;-2.80;99.90;;;;;;4971838;28;20077;-82
2023/02/09 03:22:41;;;;;;;2.40;0.50;;;-2.70;99.90;;;;;;4989863;28;20027;-83
2023/02/09 03:25:26;;;;;;;2.55;0.60;;;-2.70;99.90;;;;;;4975815;28;20026;-81
2023/02/09 03:27:58;;;;;;;2.28;0.57;;;-2.60;99.90;;;;;;4991467;28;20041;-80
2023/02/09 03:30:25;;;;;;;4.20;1.10;;;-2.50;99.90;;;;;;4987276;28;20026;-81
2023/02/09 03:32:55;;;;;;;4.35;1.40;;;-2.30;99.90;;;;;;4972392;28;20113;-78
2023/02/09 03:35:25;;;;;;;2.80;1.13;;;-2.30;99.90;;;;;;4979345;28;20044;-82
2023/02/09 03:37:51;;;;;;;;;;;-2.40;99.90;;;;;;4968948;28;20107;-80
2023/02/09 03:40:18;;;;;;;3.38;0.90;;;-2.30;99.90;;;;;;4971676;28;20360;-82
2023/02/09 03:42:44;;;;;;;3.90;1.10;;;-2.30;99.90;;;;;;4969110;28;20030;-76
2023/02/09 03:45:12;;;;;;;2.63;0.75;;;-2.40;99.90;;;;;;4954272;28;20059;-83
2023/02/09 03:47:39;;;;;;;3.20;0.80;;;-2.40;99.90;;;;;;4992959;28;20049;-83
2023/02/09 03:50:06;;;;;;;3.30;1.20;;;-2.30;99.90;;;;;;4989495;28;20053;-82
2023/02/09 03:52:34;;;;;;;3.88;1.27;;;-2.10;99.90;;;;;;4976480;28;20038;-81
2023/02/09 03:55:06;;;;;;;3.50;1.33;;;-2.10;99.90;;;;;;4967734;28;20093;-83
2023/02/09 03:57:32;;;;;;;6.30;1.83;;;-2.10;99.90;;;;;;4968300;28;20026;-81
2023/02/09 04:00:00;;;;;;;4.00;1.38;;;-2.10;99.90;;;;;;4977725;28;20038;-82
2023/02/09 04:02:25;;;;;;;5.28;1.42;;;-1.90;99.90;;;;;;4971179;28;20077;-78
2023/02/09 04:04:52;;;;;;;4.30;1.05;;;-2.00;99.90;;;;;;4977096;28;20441;-78
2023/02/09 04:07:18;;;;;;;4.68;1.60;;;-2.00;99.90;;;;;;4968108;28;20026;-79
2023/02/09 04:09:43;;;;;;;4.82;1.98;;;-2.00;99.90;;;;;;4987289;28;20080;-81
2023/02/09 04:12:10;;;;;;;4.55;1.20;;;-2.00;99.90;;;;;;4972075;28;20044;-81
2023/02/09 04:14:36;;;;;;;5.50;2.10;;;-2.10;99.90;;;;;;4983732;28;20034;-82
2023/02/09 04:17:02;;;;;;;4.57;1.75;;;-1.90;99.90;;;;;;4971515;28;20022;-82
2023/02/09 04:19:28;;;;;;;3.80;1.27;;;-1.90;99.90;;;;;;4954642;28;20031;-81
2023/02/09 04:21:54;;;;;;;4.85;1.75;;;-2.00;99.90;;;;;;4989164;28;20033;-83
2023/02/09 04:24:27;;;;;;;6.07;1.98;;;-1.90;99.90;;;;;;4960419;28;20525;-78
2023/02/09 04:26:54;;;;;;;5.75;2.08;;;-1.80;99.90;;;;;;4971639;28;20478;-79
2023/02/09 04:29:19;;;;;;;6.38;2.05;;;-1.90;99.90;;;;;;4972069;28;20035;-82
2023/02/09 04:31:47;;;;;;;5.40;1.65;;;-1.80;99.90;;;;;;4988569;28;20085;-83
2023/02/09 04:34:12;;;;;;;5.15;1.67;;;-1.80;99.90;;;;;;4989368;28;20061;-78
2023/02/09 04:36:38;;;;;;;5.70;1.80;;;-1.60;99.90;;;;;;4956422;28;20034;-82
2023/02/09 04:39:04;;;;;;;4.60;1.30;;;-1.60;99.90;;;;;;4970477;28;20365;-80
2023/02/09 04:41:30;;;;;;;5.88;1.83;;;-1.80;99.90;;;;;;4956235;28;20041;-82
2023/02/09 04:43:57;;;;;;;6.03;1.92;;;-1.70;99.90;;;;;;4972320;28;20030;-78
2023/02/09 04:46:23;;;;;;;5.65;1.55;;;-1.80;99.90;;;;;;4971349;28;20093;-81
2023/02/09 04:48:50;;;;;;;4.35;1.50;;;-1.80;99.90;;;;;;4990652;28;20023;-82
2023/02/09 04:51:16;;;;;;;4.47;1.90;;;-1.80;99.90;;;;;;4971168;28;20026;-80
2023/02/09 04:53:42;;;;;;;5.25;1.70;;;-1.80;99.90;;;;;;4955177;28;20403;-82
2023/02/09 04:56:12;;;;;;;5.88;1.77;;;-1.80;99.90;;;;;;4988916;28;20026;-82
2023/02/09 05:01:23;;;;;;;3.78;1.10;;;-1.90;99.90;;;;;;4987516;28;20022;-77
2023/02/09 05:03:52;;;;;;;3.67;1.10;;;-1.90;99.90;;;;;;4955510;28;20027;-82
2023/02/09 05:06:20;;;;;;;4.25;1.33;;;-1.80;99.90;;;;;;4971282;28;20473;-81
2023/02/09 05:08:46;;;;;;;8.05;2.22;;;-1.90;99.90;;;;;;4953212;28;20105;-79
2023/02/09 05:11:12;;;;;;;4.72;1.38;;;-1.90;99.90;;;;;;4969942;28;20495;-82
2023/02/09 05:13:38;;;;;;;5.13;1.70;;;-1.90;99.90;;;;;;4954639;28;20042;-82
2023/02/09 05:16:05;;;;;;;3.95;1.00;;;-1.90;99.90;;;;;;4971345;28;20022;-79
2023/02/09 05:18:31;;;;;;;4.15;1.70;;;-1.90;99.90;;;;;;4971375;28;20046;-81
2023/02/09 05:20:56;;;;;;;7.78;2.63;;;-1.80;99.90;;;;;;4969767;28;20022;-81
2023/02/09 05:23:22;;;;;;;5.72;1.92;;;-1.90;99.90;;;;;;4969206;28;20041;-80
2023/02/09 05:25:48;;;;;;;6.22;2.28;;;-1.80;99.90;;;;;;4953374;28;20026;-79
2023/02/09 05:28:14;;;;;;;6.60;2.13;;;-1.80;99.90;;;;;;4971010;28;20045;-80
2023/02/09 05:30:40;;;;;;;7.03;2.75;;;-1.70;99.90;;;;;;4988467;28;20101;-78
2023/02/09 05:33:05;;;;;;;5.50;2.38;;;-1.70;99.90;;;;;;4970541;28;20121;-82
2023/02/09 05:35:31;;;;;;;4.78;1.95;;;-1.80;99.90;;;;;;4988610;28;20031;-81
2023/02/09 05:37:56;;;;;;;4.95;2.03;;;-1.90;99.90;;;;;;4956394;28;20364;-81
2023/02/09 05:40:22;;;;;;;5.00;1.73;;;-1.90;99.90;;;;;;4951797;28;20372;-80
2023/02/09 05:42:50;;;;;;;6.20;2.92;;;-1.90;99.90;;;;;;4959008;28;20039;-78
2023/02/09 05:45:16;;;;;;;5.07;2.00;;;-1.80;99.90;;;;;;4983170;28;20507;-81
2023/02/09 05:47:42;;;;;;;4.38;1.85;;;-1.90;99.90;;;;;;4977978;28;20403;-80
2023/02/09 05:50:08;;;;;;;5.03;1.38;;;-2.00;99.90;;;;;;4958344;28;20060;-82
2023/02/09 05:52:33;;;;;;;4.97;1.35;;;-2.00;99.90;;;;;;4973853;28;20081;-80
2023/02/09 05:54:59;;;;;;;5.15;1.63;;;-2.00;99.90;;;;;;4973740;28;20022;-80
2023/02/09 05:57:24;;;;;;;4.38;1.42;;;-2.10;99.90;;;;;;4989671;28;20439;-81
2023/02/09 05:59:50;;;;;;;4.97;1.48;;;-2.20;99.90;;;;;;4958393;28;20109;-78
2023/02/09 06:02:16;;;;;;;4.68;1.40;;;-2.20;99.90;;;;;;4991146;28;20030;-82
2023/02/09 06:04:41;;;;;;;4.18;1.35;;;-2.20;99.90;;;;;;4956449;28;20027;-82
2023/02/09 06:07:07;;;;;;;4.93;1.67;;;-2.10;99.90;;;;;;4989156;28;20383;-82
2023/02/09 06:09:33;;;;;;;3.78;1.20;;;-2.10;99.90;;;;;;4958011;28;20182;-81
2023/02/09 06:11:58;;;;;;;4.68;1.48;;;-2.10;99.90;;;;;;4958133;28;20177;-77
2023/02/09 06:14:24;;;;;;;4.72;1.50;;;-2.10;99.90;;;;;;4973995;28;20026;-80
2023/02/09 06:16:50;;;;;;;4.88;1.55;;;-2.10;99.90;;;;;;4973326;28;20038;-82
2023/02/09 06:19:19;;;;;;;5.13;1.73;;;-1.90;99.90;;;;;;4965645;28;20033;-79
2023/02/09 06:21:45;;;;;;;6.13;1.75;;;-2.00;99.90;;;;;;4971532;28;20045;-82
2023/02/09 06:24:12;;;;;;;3.95;1.27;;;-2.00;99.90;;;;;;4965755;28;20038;-81
2023/02/09 06:26:38;;;;;;;4.18;1.73;;;-2.10;99.90;;;;;;4971370;28;20100;-82
2023/02/09 06:29:04;;;;;;;5.30;2.08;;;-2.10;99.90;;;;;;4981076;28;20045;-81
2023/02/09 06:31:29;;;;;;;4.78;1.75;;;-2.00;99.90;;;;;;4964233;28;20034;-81
2023/02/09 06:33:55;;;;;;;6.78;1.92;;;-2.10;99.90;;;;;;4969672;28;20546;-82
2023/02/09 06:36:21;;;;;;;6.68;2.28;;;-2.00;99.90;;;;;;4970937;28;20628;-79
2023/02/09 06:38:46;;;;;;;4.70;2.10;;;-2.00;99.90;;;;;;4957347;28;20313;-81
2023/02/09 06:41:12;;;;;;;7.28;3.13;;;-2.00;99.90;;;;;;4970704;28;20121;-79
2023/02/09 06:43:38;;;;;;;4.55;2.00;;;-2.00;99.90;;;;;;4973331;28;20073;-79
2023/02/09 06:46:05;;;;;;;6.00;2.00;;;-2.00;99.90;;;;;;4981332;28;20085;-78
2023/02/09 06:48:31;;;;;;;4.55;1.80;;;-2.20;99.90;;;;;;4990778;28;20057;-81
2023/02/09 06:50:57;;;;;;;4.00;1.63;;;-2.20;99.90;;;;;;4990348;28;20647;-80
2023/02/09 06:53:22;;;;;;;4.40;1.30;;;-2.20;99.90;;;;;;4973082;28;20038;-77
2023/02/09 06:55:48;;;;;;;4.45;1.48;;;-2.10;99.90;;;;;;4990754;28;20700;-81
2023/02/09 06:58:14;;;;;;;4.35;1.58;;;-2.10;99.90;;;;;;4971445;28;20045;-82
2023/02/09 07:00:39;;;;;;;4.47;1.42;;;-2.10;99.90;;;;;;4990638;28;20027;-82
2023/02/09 07:03:05;;;;;;;4.55;1.80;;;-2.10;99.90;;;;;;4969516;28;20030;-81
2023/02/09 07:05:31;;;;;;;6.82;1.70;;;-2.00;99.90;;;;;;4970385;28;20036;-81
2023/02/09 07:07:56;;;;;;;5.18;1.58;;;-2.00;99.90;;;;;;4990416;28;20065;-81
2023/02/09 07:10:22;;;;;;;4.65;1.40;;;-2.10;99.90;;;;;;4972254;28;20035;-81
2023/02/09 07:12:48;;;;;;;3.60;1.30;;;-2.00;99.90;;;;;;4959160;28;20042;-81
2023/02/09 07:15:13;;;;;;;6.82;2.08;;;-2.10;99.90;;;;;;4986585;28;20034;-80
2023/02/09 07:17:41;;;;;;;4.68;2.05;;;-2.00;99.90;;;;;;4969756;28;20038;-80
2023/02/09 07:20:08;;;;;;;4.70;1.50;;;-2.20;99.90;;;;;;4969954;28;20382;-79
2023/02/09 07:22:34;;;;;;;3.97;1.58;;;-2.20;99.90;;;;;;4989558;28;20692;-81
2023/02/09 07:25:03;;;;;;;5.68;2.20;;;-2.10;99.90;;;;;;4989061;28;20034;-80
2023/02/09 07:27:29;;;;;;;4.78;1.98;;;-2.20;99.90;;;;;;4989583;28;20028;-78
2023/02/09 07:29:54;;;;;;;5.10;1.67;;;-2.10;99.90;;;;;;4988889;28;20018;-82
2023/02/09 07:32:22;;;;;;;2.90;1.17;;;-2.10;99.90;;;;;;4970918;28;20034;-80
2023/02/09 07:34:48;;;;;;;4.40;1.23;;;-2.20;99.90;;;;;;4973824;28;20049;-82
2023/02/09 07:37:14;;;;;;;4.00;1.38;;;-2.20;99.90;;;;;;4988952;28;20486;-82
2023/02/09 07:39:40;;;;;;;5.93;1.20;;;-2.20;99.90;;;;;;4955303;28;20034;-80
2023/02/09 07:42:05;;;;;;;3.58;1.02;;;-2.10;99.90;;;;;;4970613;28;20049;-81
2023/02/09 07:44:55;;;;;;;;;;;-2.00;99.90;;;;;;4959422;28;20026;-81
2023/02/09 07:47:21;;;;;;;3.65;1.10;;;-2.00;99.90;;;;;;4974888;28;19928;-80
2023/02/09 07:49:47;;;;;;;3.00;1.05;;;-2.00;99.90;;;;;;4992232;28;20034;-80
2023/02/09 07:52:12;;;;;;;3.92;1.05;;;-2.00;99.90;;;;;;4988503;28;20049;-81
2023/02/09 07:54:38;;;;;;;3.83;1.17;;;-1.90;99.90;;;;;;4969105;28;20126;-80
2023/02/09 07:57:04;;;;;;;5.15;1.30;;;-1.90;99.90;;;;;;4988401;28;20038;-81
2023/02/09 07:59:29;;;;;;;4.93;1.30;;;-1.80;99.90;;;;;;4988628;28;20100;-78
2023/02/09 08:01:55;;;;;;;5.57;1.58;;;-1.80;99.90;;;;;;4988540;28;20025;-80
2023/02/09 08:04:21;;;;;;;6.03;2.20;;;-1.60;99.90;;;;;;4967415;28;20380;-80
2023/02/09 08:06:47;;;;;;;5.10;1.77;;;-1.50;99.90;;;;;;4989678;28;20030;-82
2023/02/09 08:09:17;;;;;;;6.45;2.75;;;-1.50;99.90;;;;;;4970304;28;20038;-81
2023/02/09 08:11:51;;;;;;;;;;;-1.40;99.90;;;;;;4970944;28;20052;-81
2023/02/09 08:14:23;;;;;;;7.03;2.22;;;-1.30;99.90;;;;;;4987408;28;19922;-80
2023/02/09 08:17:18;;;;;;;5.20;2.10;;;-1.30;99.90;;;;;;4970018;28;20113;-82
2023/02/09 08:19:37;;;;;;;6.35;2.53;;;-1.20;99.90;;;;;;4987765;28;20033;-82
2023/02/09 08:22:02;;;;;;;9.70;3.42;;;-1.20;99.90;;;;;;4987624;28;20429;-79
2023/02/09 08:24:28;;;;;;;8.55;3.47;;;-1.00;99.90;;;;;;4987381;28;20049;-78
2023/02/09 08:26:54;;;;;;;7.78;4.03;;;-1.00;99.90;;;;;;4988348;28;20084;-80
2023/02/09 08:29:20;;;;;;;12.18;5.00;;;-1.00;99.90;;;;;;4987839;28;20077;-79
2023/02/09 08:31:45;;;;;;;8.27;4.40;;;-0.90;99.90;;;;;;4988098;28;20030;-80
2023/02/09 08:34:11;;;;;;;10.18;5.68;;;-0.90;99.90;;;;;;4970342;28;20062;-80
2023/02/09 08:36:38;;;;;;;9.25;4.50;;;-0.70;99.90;;;;;;4970452;28;20031;-81
2023/02/09 08:39:06;;;;;;;8.65;4.05;;;-0.70;99.90;;;;;;4954174;28;20034;-81
2023/02/09 08:41:32;;;;;;;9.80;4.65;;;-0.70;99.90;;;;;;4988108;28;20501;-81
2023/02/09 08:43:58;;;;;;;7.35;3.75;;;-0.60;99.90;;;;;;4970759;28;20116;-77
2023/02/09 08:46:24;;;;;;;13.52;6.22;;;-0.50;99.90;;;;;;4988432;28;20817;-81
2023/02/09 08:48:51;;;;;;;10.30;4.88;;;-0.40;99.90;;;;;;4957201;28;20034;-80
2023/02/09 08:51:17;;;;;;;7.25;4.32;;;-0.40;99.90;;;;;;4973072;28;20359;-82
2023/02/09 08:53:50;;;;;;;9.23;4.07;;;-0.30;99.90;;;;;;4987669;28;20048;-81
2023/02/09 08:56:22;;;;;;;8.55;4.78;;;-0.30;99.90;;;;;;4965756;28;20034;-81
2023/02/09 08:58:48;;;;;;;8.48;3.42;;;-0.10;99.90;;;;;;4970241;28;20118;-80
2023/02/09 09:01:14;;;;;;;7.65;3.45;;;0.00;99.90;;;;;;4987402;28;20117;-80
2023/02/09 09:03:41;;;;;;;8.63;4.00;;;0.00;99.90;;;;;;4970234;28;20478;-81
2023/02/09 09:06:09;;;;;;;8.60;4.47;;;0.10;99.90;;;;;;4969501;28;20026;-81
2023/02/09 09:08:36;;;;;;;9.05;4.47;;;0.20;99.90;;;;;;4970527;28;20030;-80
2023/02/09 09:11:05;;;;;;;9.95;4.65;;;0.30;99.90;;;;;;4985209;28;20521;-81
2023/02/09 09:13:30;;;;;;;9.50;4.25;;;0.40;99.90;;;;;;4990209;28;20081;-79
2023/02/09 09:15:56;;;;;;;10.75;4.85;;;0.50;99.90;;;;;;4963838;28;20030;-78
2023/02/09 09:18:23;;;;;;;10.85;5.90;;;0.60;99.90;;;;;;4958237;28;20030;-79
2023/02/09 09:20:48;;;;;;;9.70;5.07;;;0.60;99.90;;;;;;4973539;28;20022;-81
2023/02/09 09:23:14;;;;;;;10.30;5.35;;;0.70;99.90;;;;;;4976209;28;20400;-80
2023/02/09 09:25:40;;;;;;;10.88;6.05;;;0.70;99.90;;;;;;4957559;28;20073;-80
2023/02/09 09:28:06;;;;;;;8.50;5.32;;;0.90;99.90;;;;;;4990516;28;20022;-79
2023/02/09 09:30:32;;;;;;;9.13;5.22;;;1.00;99.90;;;;;;4949347;28;20442;-78
2023/02/09 09:32:59;;;;;;;12.95;6.45;;;1.10;99.90;;;;;;4989474;28;20042;-82
2023/02/09 09:35:26;;;;;;;9.82;5.05;;;1.20;99.90;;;;;;4990701;28;20034;-81
2023/02/09 09:37:54;;;;;;;8.15;4.25;;;1.20;99.90;;;;;;4990904;28;20034;-79
2023/02/09 09:40:31;;;;;;;7.07;3.75;;;1.30;99.90;;;;;;4973474;28;20036;-82
2023/02/09 09:43:18;;;;;;;6.30;3.67;;;1.30;99.90;;;;;;4972300;28;20030;-80
2023/02/09 09:45:45;;;;;;;6.63;3.42;;;1.40;99.90;;;;;;4975821;28;20026;-77
2023/02/09 09:48:52;;;;;;;9.57;5.25;;;1.50;99.90;;;;;;4972332;28;20069;-78
2023/02/09 09:51:40;;;;;;;7.95;4.20;;;1.40;99.90;;;;;;4981075;28;20042;-78
2023/02/09 09:54:17;;;;;;;8.23;4.32;;;1.50;99.90;;;;;;4989580;28;20065;-82
2023/02/09 09:56:43;;;;;;;8.30;4.55;;;1.60;99.90;;;;;;4990368;28;20037;-78
2023/02/09 09:59:25;;;;;;;6.03;3.42;;;1.60;99.90;;;;;;4973531;28;20030;-83
2023/02/09 10:01:52;;;;;;;7.82;3.88;;;1.70;99.90;;;;;;4970471;28;20026;-80
2023/02/09 10:04:19;;;;;;;9.48;4.68;;;1.80;99.90;;;;;;4973032;28;20482;-82
2023/02/09 10:06:57;;;;;;;9.10;5.13;;;1.80;99.90;;;;;;4972358;28;20042;-82
2023/02/09 10:09:43;;;;;;;10.52;4.78;;;1.80;99.90;;;;;;4989797;28;20570;-79
2023/02/09 10:12:35;;;;;;;10.90;4.53;;;1.80;99.90;;;;;;4989370;28;20099;-82
2023/02/09 10:15:30;;;;;;;10.68;4.57;;;1.90;99.90;;;;;;4984549;28;20263;-80
2023/02/09 10:17:57;;;;;;;6.22;3.53;;;2.00;99.90;;;;;;4990173;28;20030;-82
2023/02/09 10:21:05;;;;;;;7.10;3.72;;;2.10;99.90;;;;;;4990210;28;20031;-82
2023/02/09 10:23:41;;;;;;;7.22;3.38;;;2.10;99.90;;;;;;4918641;29;20039;-80
2023/02/09 10:26:07;;;;;;;7.00;3.75;;;2.20;99.90;;;;;;4935420;28;20043;-80
2023/02/09 10:28:45;;;;;;;11.00;5.35;;;2.20;99.90;;;;;;4937288;29;20039;-76
2023/02/09 10:31:22;;;;;;;10.82;4.75;;;2.10;99.90;;;;;;4936059;29;20043;-80
2023/02/09 10:33:56;;;;;;;9.00;4.38;;;2.10;99.90;;;;;;4921282;29;20484;-80
2023/02/09 10:36:34;;;;;;;9.27;5.50;;;2.30;99.90;;;;;;4929645;29;20507;-77
2023/02/09 10:39:11;;;;;;;10.90;5.40;;;2.30;99.90;;;;;;4938983;29;20035;-80
2023/02/09 10:41:40;;;;;;;13.68;6.18;;;2.40;99.90;;;;;;4935490;29;20074;-80
2023/02/09 10:44:16;;;;;;;10.30;5.10;;;2.50;99.90;;;;;;4937946;29;20079;-79
2023/02/09 10:46:42;;;;;;;8.60;4.72;;;2.60;99.90;;;;;;4921450;29;20516;-78
2023/02/09 10:49:34;;;;;;;9.82;5.95;;;2.70;99.90;;;;;;4936164;29;20510;-78
2023/02/09 10:52:09;;;;;;;9.45;4.63;;;2.60;99.90;;;;;;4916884;29;20083;-79
2023/02/09 10:54:41;;;;;;;9.73;5.70;;;2.80;99.90;;;;;;4936521;29;20255;-78
2023/02/09 10:57:27;;;;;;;13.13;6.82;;;2.70;99.90;;;;;;4957102;28;20394;-78
2023/02/09 10:59:58;;;;;;;9.98;5.97;;;2.80;99.90;;;;;;4990127;28;20026;-82
2023/02/09 11:02:35;;;;;;;8.63;5.25;;;3.00;99.90;;;;;;4988229;28;20034;-79
2023/02/09 11:05:01;;;;;;;8.35;5.05;;;3.10;99.90;;;;;;4987788;28;20034;-80
2023/02/09 11:07:36;;;;;;;6.63;4.35;;;3.20;99.90;;;;;;4972317;28;20485;-80
2023/02/09 11:10:05;;;;;;;8.93;4.95;;;3.40;99.90;;;;;;4971408;28;20077;-79
2023/02/09 11:12:31;;;;;;;9.43;5.28;;;3.40;99.90;;;;;;4955357;28;20196;-80
2023/02/09 11:14:56;;;;;;;7.95;5.20;;;3.50;99.90;;;;;;4992682;28;20574;-78
2023/02/09 11:17:38;;;;;;;9.07;4.82;;;3.60;99.90;;;;;;4984529;28;20482;-80
2023/02/09 11:20:22;;;;;;;13.07;5.95;;;3.70;99.90;;;;;;4987873;28;20038;-80
2023/02/09 11:23:00;;;;;;;9.73;5.80;;;3.70;99.90;;;;;;4976784;28;20054;-79
2023/02/09 11:25:37;;;;;;;8.35;5.82;;;3.90;99.90;;;;;;4970256;28;20090;-78
2023/02/09 11:28:09;;;;;;;9.98;5.90;;;3.90;99.90;;;;;;4983674;28;20042;-78
2023/02/09 11:30:59;;;;;;;8.38;4.82;;;3.70;99.90;;;;;;4974957;28;20049;-78
2023/02/09 11:33:48;;;;;;;10.50;6.63;;;3.80;99.90;;;;;;4989779;28;20090;-78
2023/02/09 11:36:32;;;;;;;10.88;6.75;;;3.90;99.90;;;;;;4975741;28;20092;-78
2023/02/09 11:39:00;;;;;;;10.95;5.82;;;3.90;99.90;;;;;;4988365;28;20041;-80
2023/02/09 11:44:42;;;;;;;11.23;5.82;;;4.00;99.90;;;;;;4989216;28;20084;-79
2023/02/09 11:47:17;;;;;;;10.07;5.20;;;4.10;99.90;;;;;;4970285;28;20069;-79
2023/02/09 11:49:47;;;;;;;9.95;5.32;;;4.10;99.90;;;;;;4954840;28;20448;-79
2023/02/09 11:52:19;;;;;;;11.55;5.55;;;4.30;99.90;;;;;;4986800;28;20521;-80
2023/02/09 11:54:51;;;;;;;7.65;4.88;;;4.20;99.90;;;;;;4990199;28;20455;-79
2023/02/09 11:57:34;;;;;;;8.77;5.13;;;4.20;99.90;;;;;;4953748;28;20558;-80
2023/02/09 12:00:04;;;;;;;7.30;4.47;;;4.20;99.90;;;;;;4982308;28;20117;-79
2023/02/09 12:03:07;;;;;;;7.50;4.20;;;4.40;99.90;;;;;;4986914;28;20642;-79
2023/02/09 12:05:33;;;;;;;6.45;3.95;;;4.40;99.90;;;;;;4950866;28;20034;-80
2023/02/09 12:08:22;;;;;;;6.20;3.63;;;4.40;99.90;;;;;;4968628;28;20034;-79
2023/02/09 12:10:55;;;;;;;7.07;3.47;;;4.40;99.90;;;;;;4987264;28;20494;-80
2023/02/09 12:13:38;;;;;;;7.82;4.53;;;4.50;99.90;;;;;;4965627;28;20056;-79
2023/02/09 12:16:13;;;;;;;8.13;4.55;;;4.40;99.90;;;;;;4989305;28;20196;-79
2023/02/09 12:18:40;;;;;;;8.63;4.90;;;4.50;99.90;;;;;;4952472;28;20038;-79
2023/02/09 12:21:07;;;;;;;9.63;5.40;;;4.60;99.90;;;;;;4987952;28;20041;-80
2023/02/09 12:23:41;;;;;;;9.27;5.18;;;4.60;99.90;;;;;;4986995;28;20026;-80
2023/02/09 12:26:16;;;;;;;8.00;4.88;;;4.60;99.90;;;;;;4987636;28;20048;-79
2023/02/09 12:28:44;;;;;;;6.68;3.90;;;4.60;99.90;;;;;;4950705;28;20027;-79
2023/02/09 12:31:23;;;;;;;7.38;4.32;;;4.60;99.90;;;;;;4968946;28;20041;-80
2023/02/09 12:33:58;;;;;;;9.85;5.38;;;4.50;99.90;;;;;;4986865;28;20117;-80
2023/02/09 12:36:24;;;;;;;10.27;6.03;;;4.40;99.90;;;;;;4977035;28;20553;-80
2023/02/09 12:38:49;;;;;;;8.32;4.97;;;4.50;99.90;;;;;;4973073;28;20122;-81
2023/02/09 12:41:16;;;;;;;11.02;5.88;;;4.60;99.90;;;;;;4986133;28;20037;-79
2023/02/09 12:43:45;;;;;;;11.20;5.60;;;4.60;99.90;;;;;;4973475;28;20034;-80
2023/02/09 12:46:15;;;;;;;7.68;4.20;;;4.60;99.90;;;;;;4987709;28;20073;-80
2023/02/09 12:48:58;;;;;;;8.57;5.25;;;4.80;99.90;;;;;;4989696;28;20019;-79
2023/02/09 12:51:39;;;;;;;10.88;6.30;;;4.80;99.90;;;;;;4952517;28;20041;-81
2023/02/09 12:54:29;;;;;;;9.05;5.18;;;4.80;99.90;;;;;;4971133;28;20482;-81
2023/02/09 12:57:15;;;;;;;10.30;6.45;;;5.00;99.90;;;;;;4969541;28;20458;-80
2023/02/09 12:59:50;;;;;;;10.25;6.22;;;5.00;99.90;;;;;;4973420;28;20053;-80
2023/02/09 13:02:32;;;;;;;11.13;6.85;;;4.80;99.90;;;;;;4991750;28;20031;-80
2023/02/09 13:05:22;;;;;;;10.50;6.28;;;4.90;99.90;;;;;;4985131;28;20062;-81
2023/02/09 13:08:18;;;;;;;10.52;5.95;;;4.90;99.90;;;;;;4991054;28;20022;-80
2023/02/09 13:10:49;;;;;;;11.32;6.38;;;4.90;99.90;;;;;;4976627;28;20053;-79
2023/02/09 13:13:25;;;;;;;9.75;5.95;;;4.80;99.90;;;;;;4995501;28;20564;-80
2023/02/09 13:16:03;;;;;;;9.98;5.90;;;4.70;99.90;;;;;;4970239;28;20034;-80